createdAt,value
2018-07-04T00:00:37.594Z,22.40
2018-07-04T00:03:24.053Z,22.40
2018-07-04T00:06:10.046Z,22.30
2018-07-04T00:11:35.929Z,22.30
2018-07-04T00:14:22.017Z,22.20
2018-07-04T00:17:08.361Z,22.20
2018-07-04T00:19:54.255Z,22.20
2018-07-04T00:22:40.528Z,22.20
2018-07-04T00:25:26.988Z,22.20
2018-07-04T00:28:13.293Z,22.20
2018-07-04T00:33:40.093Z,22.20
2018-07-04T00:36:26.154Z,22.20
2018-07-04T00:39:12.267Z,22.20
2018-07-04T00:41:52.732Z,22.20
2018-07-04T00:44:38.762Z,22.10
2018-07-04T00:47:25.012Z,22.10
2018-07-04T00:50:11.072Z,22.00
2018-07-04T00:52:57.318Z,22.00
2018-07-04T00:55:43.528Z,22.00
2018-07-04T00:58:29.587Z,21.90
2018-07-04T01:01:16.081Z,21.90
2018-07-04T01:04:02.352Z,21.90
2018-07-04T01:06:48.294Z,21.80
2018-07-04T01:09:34.635Z,21.70
2018-07-04T01:12:20.851Z,21.70
2018-07-04T01:15:07.169Z,21.70
2018-07-04T01:17:53.069Z,21.70
2018-07-04T01:20:44.635Z,21.70
2018-07-04T01:23:30.809Z,21.60
2018-07-04T01:26:16.893Z,21.60
2018-07-04T01:29:02.931Z,21.60
2018-07-04T01:31:45.115Z,21.60
2018-07-04T01:34:31.140Z,21.50
2018-07-04T01:37:17.346Z,21.50
2018-07-04T01:40:03.535Z,21.50
2018-07-04T01:42:49.669Z,21.50
2018-07-04T01:45:36.015Z,21.50
2018-07-04T01:48:22.027Z,21.50
2018-07-04T01:51:08.273Z,21.40
2018-07-04T01:53:54.542Z,21.30
2018-07-04T01:56:40.698Z,21.30
2018-07-04T01:59:26.856Z,21.20
2018-07-04T02:02:13.005Z,21.20
2018-07-04T02:04:59.450Z,21.20
2018-07-04T02:07:40.084Z,21.20
2018-07-04T02:10:26.159Z,21.00
2018-07-04T02:13:12.468Z,21.00
2018-07-04T02:15:58.739Z,21.00
2018-07-04T02:18:44.667Z,20.90
2018-07-04T02:21:31.148Z,20.80
2018-07-04T02:24:17.100Z,20.70
2018-07-04T02:27:03.368Z,20.70
2018-07-04T02:29:49.668Z,20.60
2018-07-04T02:32:35.711Z,20.60
2018-07-04T02:35:21.934Z,20.50
2018-07-04T02:38:08.252Z,20.50
2018-07-04T02:40:54.966Z,20.50
2018-07-04T02:43:41.182Z,20.50
2018-07-04T02:46:32.543Z,20.50
2018-07-04T02:49:19.405Z,20.40
2018-07-04T02:52:05.382Z,20.40
2018-07-04T02:54:51.472Z,20.30
2018-07-04T02:57:37.870Z,20.30
2018-07-04T03:00:23.915Z,20.20
2018-07-04T03:03:10.146Z,20.20
2018-07-04T03:05:56.916Z,20.20
2018-07-04T03:08:43.073Z,20.20
2018-07-04T03:11:28.884Z,20.20
2018-07-04T03:14:15.131Z,20.20
2018-07-04T03:17:01.185Z,20.20
2018-07-04T03:19:47.317Z,20.10
2018-07-04T03:22:33.280Z,20.10
2018-07-04T03:25:13.794Z,20.00
2018-07-04T03:27:59.848Z,20.00
2018-07-04T03:30:45.988Z,19.90
2018-07-04T03:33:32.017Z,19.90
2018-07-04T03:36:19.022Z,19.80
2018-07-04T03:39:06.171Z,19.80
2018-07-04T03:41:52.354Z,19.80
2018-07-04T03:44:38.388Z,19.70
2018-07-04T03:47:24.535Z,19.70
2018-07-04T03:50:10.643Z,19.70
2018-07-04T03:52:56.780Z,19.70
2018-07-04T03:55:42.843Z,19.70
2018-07-04T03:58:28.857Z,19.70
2018-07-04T04:01:15.033Z,19.70
2018-07-04T04:04:01.051Z,19.70
2018-07-04T04:06:47.312Z,19.70
2018-07-04T04:09:33.355Z,19.80
2018-07-04T04:12:19.532Z,19.80
2018-07-04T04:15:05.631Z,19.90
2018-07-04T04:17:51.622Z,20.00
2018-07-04T04:20:37.948Z,20.10
2018-07-04T04:23:24.305Z,20.10
2018-07-04T04:26:10.511Z,20.10
2018-07-04T04:28:56.450Z,20.20
2018-07-04T04:31:42.615Z,20.30
2018-07-04T04:34:28.886Z,20.30
2018-07-04T04:40:06.656Z,20.30
2018-07-04T04:42:52.646Z,20.40
2018-07-04T04:45:38.816Z,20.60
2018-07-04T04:48:25.946Z,20.60
2018-07-04T04:51:12.178Z,20.60
2018-07-04T04:53:58.284Z,20.60
2018-07-04T04:56:44.591Z,20.60
2018-07-04T04:59:30.746Z,20.70
2018-07-04T05:02:16.828Z,20.70
2018-07-04T05:05:03.306Z,20.70
2018-07-04T05:07:49.592Z,20.80
2018-07-04T05:10:36.030Z,20.80
2018-07-04T05:13:22.312Z,20.80
2018-07-04T05:16:08.565Z,20.80
2018-07-04T06:04:59.923Z,20.60
2018-07-04T06:07:40.387Z,22.00
2018-07-04T06:10:20.959Z,22.10
2018-07-04T06:13:01.311Z,22.30
2018-07-04T06:15:41.876Z,22.50
2018-07-04T06:18:22.412Z,22.70
2018-07-04T06:21:03.084Z,22.80
2018-07-04T06:23:49.373Z,22.90
2018-07-04T06:29:15.419Z,23.00
2018-07-04T06:32:01.572Z,23.00
2018-07-04T06:34:47.751Z,23.00
2018-07-04T06:37:36.401Z,23.10
2018-07-04T06:40:10.538Z,23.20
2018-07-04T06:42:44.251Z,23.30
2018-07-04T06:45:17.955Z,23.30
2018-07-04T06:47:51.653Z,23.40
2018-07-04T06:50:25.308Z,23.40
2018-07-04T06:52:58.979Z,23.50
2018-07-04T06:55:32.574Z,23.50
2018-07-04T06:58:06.376Z,23.50
2018-07-04T07:00:40.467Z,23.60
2018-07-04T07:03:26.678Z,23.60
2018-07-04T07:06:13.007Z,23.60
2018-07-04T07:08:59.351Z,23.60
2018-07-04T07:11:45.948Z,23.60
2018-07-04T07:14:32.361Z,23.70
2018-07-04T07:17:18.744Z,23.70
2018-07-04T07:20:06.534Z,23.70
2018-07-04T07:22:52.776Z,23.80
2018-07-04T07:25:38.727Z,23.80
2018-07-04T07:28:19.439Z,23.90
2018-07-04T07:30:59.868Z,24.00
2018-07-04T07:33:40.563Z,24.10
2018-07-04T07:36:26.959Z,24.20
2018-07-04T07:39:13.276Z,24.30
2018-07-04T07:41:59.345Z,24.30
2018-07-04T07:44:46.294Z,24.40
2018-07-04T07:47:32.514Z,24.40
2018-07-04T07:50:18.516Z,24.40
2018-07-04T07:53:04.866Z,24.50
2018-07-04T07:55:45.330Z,24.50
2018-07-04T07:58:25.866Z,24.60
2018-07-04T08:01:06.481Z,24.60
2018-07-04T08:06:50.517Z,24.70
2018-07-04T08:09:36.591Z,25.00
2018-07-04T08:15:03.015Z,25.90
2018-07-04T08:17:49.584Z,26.30
2018-07-04T08:20:35.916Z,26.60
2018-07-04T08:23:21.838Z,26.80
2018-07-04T08:26:08.141Z,26.90
2018-07-04T08:28:54.674Z,26.80
2018-07-04T08:31:40.938Z,26.70
2018-07-04T08:34:27.141Z,26.70
2018-07-04T08:37:13.285Z,26.80
2018-07-04T08:39:59.434Z,26.70
2018-07-04T08:42:45.650Z,26.60
2018-07-04T08:45:31.871Z,26.50
2018-07-04T08:48:18.308Z,26.50
2018-07-04T08:51:04.359Z,26.50
2018-07-04T08:53:50.704Z,26.60
2018-07-04T08:56:36.905Z,26.70
2018-07-04T08:59:22.929Z,26.90
2018-07-04T09:02:09.018Z,27.00
2018-07-04T09:04:55.404Z,27.00
2018-07-04T09:07:42.217Z,27.00
2018-07-04T09:13:08.700Z,27.00
2018-07-04T09:15:54.612Z,27.10
2018-07-04T09:18:40.825Z,27.20
2018-07-04T09:21:27.170Z,27.30
2018-07-04T09:24:13.339Z,27.30
2018-07-04T09:26:59.471Z,27.40
2018-07-04T09:29:45.720Z,27.30
2018-07-04T09:32:31.878Z,26.90
2018-07-04T09:35:18.036Z,26.60
2018-07-04T09:38:04.171Z,26.40
2018-07-04T09:40:50.510Z,26.40
2018-07-04T09:43:36.511Z,26.40
2018-07-04T09:46:22.485Z,26.40
2018-07-04T09:49:08.656Z,26.50
2018-07-04T09:51:54.607Z,26.60
2018-07-04T09:54:40.862Z,26.70
2018-07-04T09:57:21.240Z,26.80
2018-07-04T10:00:07.362Z,26.90
2018-07-04T10:02:54.613Z,26.90
2018-07-04T10:05:40.946Z,26.80
2018-07-04T10:08:27.865Z,26.90
2018-07-04T10:11:13.904Z,27.00
2018-07-04T10:13:59.927Z,27.10
2018-07-04T10:16:46.132Z,27.20
2018-07-04T10:19:32.478Z,27.30
2018-07-04T10:22:18.684Z,27.30
2018-07-04T10:25:04.917Z,27.30
2018-07-04T10:27:51.123Z,27.50
2018-07-04T10:30:37.184Z,27.70
2018-07-04T10:33:23.438Z,27.80
2018-07-04T10:36:09.658Z,27.90
2018-07-04T10:38:55.707Z,28.00
2018-07-04T10:41:41.932Z,28.20
2018-07-04T10:44:28.175Z,28.30
2018-07-04T10:47:15.516Z,28.20
2018-07-04T10:50:02.052Z,28.10
2018-07-04T10:52:48.753Z,28.10
2018-07-04T10:55:36.472Z,28.20
2018-07-04T10:58:23.034Z,28.10
2018-07-04T11:01:09.320Z,28.00
2018-07-04T11:03:56.313Z,27.90
2018-07-04T11:06:48.989Z,27.70
2018-07-04T11:09:35.051Z,27.70
2018-07-04T11:12:17.348Z,27.50
2018-07-04T11:15:03.753Z,27.20
2018-07-04T11:17:50.749Z,26.70
2018-07-04T11:20:37.142Z,26.20
2018-07-04T11:23:26.393Z,25.90
2018-07-04T11:26:12.314Z,25.80
2018-07-04T11:28:58.594Z,26.00
2018-07-04T11:31:44.693Z,26.10
2018-07-04T11:34:31.102Z,26.50
2018-07-04T11:37:17.157Z,26.80
2018-07-04T11:40:03.357Z,27.10
2018-07-04T11:42:43.959Z,27.50
2018-07-04T11:45:24.337Z,27.90
2018-07-04T11:47:52.377Z,28.20
2018-07-04T11:52:48.725Z,28.80
2018-07-04T11:55:16.862Z,29.20
2018-07-04T11:57:44.970Z,29.40
2018-07-04T12:00:13.114Z,29.60
2018-07-04T12:02:41.412Z,29.80
2018-07-04T12:07:43.919Z,30.10
2018-07-04T12:10:12.083Z,30.20
2018-07-04T12:12:40.114Z,30.30
2018-07-04T12:15:14.536Z,30.20
2018-07-04T12:17:42.858Z,30.00
2018-07-04T12:20:16.687Z,29.90
2018-07-04T12:22:50.695Z,29.90
2018-07-04T12:25:24.470Z,29.70
2018-07-04T12:27:58.120Z,29.70
2018-07-04T12:30:31.607Z,29.50
2018-07-04T12:33:05.280Z,29.40
2018-07-04T12:35:39.004Z,29.30
2018-07-04T12:38:12.692Z,29.30
2018-07-04T12:40:40.723Z,29.40
2018-07-04T12:43:14.389Z,29.30
2018-07-04T12:45:48.060Z,29.30
2018-07-04T12:48:21.890Z,29.20
2018-07-04T12:50:55.677Z,29.30
2018-07-04T12:53:29.348Z,29.30
2018-07-04T12:56:15.631Z,29.40
2018-07-04T12:59:01.961Z,29.40
2018-07-04T13:01:48.380Z,29.40
2018-07-04T13:04:34.382Z,29.30
2018-07-04T13:07:20.684Z,29.40
2018-07-04T13:10:07.000Z,29.30
2018-07-04T13:15:33.371Z,29.30
2018-07-04T13:18:19.518Z,29.30
2018-07-04T13:20:59.963Z,29.40
2018-07-04T13:23:46.507Z,29.40
2018-07-04T13:26:32.678Z,29.50
2018-07-04T13:29:18.818Z,29.70
2018-07-04T13:32:05.285Z,29.80
2018-07-04T13:34:51.760Z,29.90
2018-07-04T13:37:38.821Z,29.90
2018-07-04T13:40:24.821Z,29.70
2018-07-04T13:43:10.925Z,29.60
2018-07-04T13:45:57.360Z,29.50
2018-07-04T13:48:37.947Z,29.50
2018-07-04T13:51:24.231Z,29.40
2018-07-04T13:54:10.153Z,29.30
2018-07-04T13:56:56.464Z,29.30
2018-07-04T13:59:36.587Z,29.40
2018-07-04T14:02:22.759Z,29.40
2018-07-04T14:05:09.081Z,29.30
2018-07-04T14:07:55.340Z,29.30
2018-07-04T14:10:41.674Z,29.30
2018-07-04T14:13:27.999Z,29.30
2018-07-04T14:16:14.184Z,29.30
2018-07-04T14:19:00.754Z,29.40
2018-07-04T14:21:47.257Z,29.50
2018-07-04T14:24:33.219Z,29.60
2018-07-04T14:27:25.643Z,29.60
2018-07-04T14:30:11.631Z,29.70
2018-07-04T14:32:58.000Z,29.70
2018-07-04T14:35:44.490Z,29.90
2018-07-04T14:38:40.692Z,30.10
2018-07-04T14:41:26.699Z,30.30
2018-07-04T14:44:13.317Z,30.30
2018-07-04T14:47:01.255Z,30.20
2018-07-04T14:49:47.697Z,30.20
2018-07-04T14:52:33.900Z,30.10
2018-07-04T14:55:20.411Z,30.20
2018-07-04T14:58:06.716Z,30.30
2018-07-04T15:00:47.154Z,30.20
2018-07-04T15:03:27.814Z,30.00
2018-07-04T15:06:08.506Z,29.90
2018-07-04T15:08:48.917Z,30.10
2018-07-04T15:11:29.318Z,30.20
2018-07-04T15:14:09.542Z,30.20
2018-07-04T15:16:50.205Z,30.10
2018-07-04T15:24:47.863Z,30.30
2018-07-04T15:27:35.097Z,30.30
2018-07-04T15:30:21.437Z,30.40
2018-07-04T15:33:07.807Z,30.50
2018-07-04T15:35:53.812Z,30.60
2018-07-04T15:38:39.993Z,30.70
2018-07-04T15:41:26.997Z,30.60
2018-07-04T15:44:13.353Z,30.70
2018-07-04T15:49:35.000Z,30.60
2018-07-04T15:52:15.775Z,30.60
2018-07-04T15:54:57.280Z,30.60
2018-07-04T15:57:43.709Z,30.60
2018-07-04T16:03:10.609Z,30.40
2018-07-04T16:05:56.539Z,30.40
2018-07-04T16:11:22.919Z,30.40
2018-07-04T16:14:09.317Z,30.40
2018-07-04T16:19:35.822Z,30.30
2018-07-04T16:22:21.887Z,30.30
2018-07-04T16:25:03.375Z,30.20
2018-07-04T16:27:51.826Z,30.10
2018-07-04T16:30:39.082Z,30.00
2018-07-04T16:33:25.351Z,29.90
2018-07-04T16:36:11.506Z,29.90
2018-07-04T16:38:57.637Z,29.90
2018-07-04T16:41:45.092Z,29.90
2018-07-04T16:44:31.407Z,29.90
2018-07-04T16:47:12.505Z,29.80
2018-07-04T16:49:59.481Z,29.70
2018-07-04T16:52:45.791Z,29.80
2018-07-04T16:55:31.774Z,29.80
2018-07-04T16:58:18.033Z,29.80
2018-07-04T17:01:04.097Z,29.80
2018-07-04T17:03:50.551Z,29.90
2018-07-04T17:06:37.107Z,29.80
2018-07-04T17:09:23.527Z,29.80
2018-07-04T17:12:09.807Z,29.70
2018-07-04T17:14:56.265Z,29.60
2018-07-04T17:17:42.404Z,29.50
2018-07-04T17:20:28.458Z,29.50
2018-07-04T17:23:14.736Z,29.60
2018-07-04T17:28:41.182Z,29.70
2018-07-04T17:31:27.434Z,29.70
2018-07-04T17:34:14.015Z,29.60
2018-07-04T17:37:01.244Z,29.50
2018-07-04T17:39:47.834Z,29.40
2018-07-04T17:42:34.266Z,29.30
2018-07-04T17:45:20.331Z,29.20
2018-07-04T17:48:06.466Z,29.00
2018-07-04T17:50:52.715Z,28.90
2018-07-04T17:53:39.070Z,28.80
2018-07-04T17:56:25.500Z,28.80
2018-07-04T17:59:11.811Z,28.90
2018-07-04T18:01:58.078Z,29.10
2018-07-04T18:04:44.423Z,29.30
2018-07-04T18:07:30.750Z,29.50
2018-07-04T18:10:17.340Z,29.70
2018-07-04T18:13:03.828Z,29.80
2018-07-04T18:15:50.348Z,29.90
2018-07-04T18:18:36.885Z,29.90
2018-07-04T18:21:25.201Z,29.90
2018-07-04T18:24:11.477Z,29.70
2018-07-04T18:26:57.967Z,29.60
2018-07-04T18:29:44.170Z,29.50
2018-07-04T18:32:30.367Z,29.30
2018-07-04T18:35:16.804Z,29.00
2018-07-04T18:38:03.123Z,29.00
2018-07-04T18:40:49.389Z,28.90
2018-07-04T18:46:10.751Z,28.70
2018-07-04T18:48:56.807Z,28.50
2018-07-04T18:51:43.134Z,28.40
2018-07-04T18:54:29.485Z,28.20
2018-07-04T18:57:15.871Z,28.10
2018-07-04T19:00:02.031Z,28.00
2018-07-04T19:02:48.225Z,27.90
2018-07-04T19:05:34.563Z,27.80
2018-07-04T19:08:21.427Z,27.70
2018-07-04T19:11:02.584Z,27.60
2018-07-04T19:13:49.080Z,27.50
2018-07-04T19:16:35.960Z,27.40
2018-07-04T19:19:22.477Z,27.30
2018-07-04T19:22:08.523Z,27.30
2018-07-04T19:24:54.731Z,27.20
2018-07-04T19:27:40.960Z,27.10
2018-07-04T19:30:27.259Z,27.00
2018-07-04T19:33:15.700Z,26.90
2018-07-04T19:38:42.172Z,26.60
2018-07-04T19:41:28.662Z,26.60
2018-07-04T19:44:15.004Z,26.50
2018-07-04T19:47:04.265Z,26.40
2018-07-04T19:49:50.567Z,26.30
2018-07-04T19:52:37.468Z,26.20
2018-07-04T19:55:17.916Z,26.10
2018-07-04T21:20:14.219Z,26.00
2018-07-04T21:23:02.884Z,24.50
2018-07-04T21:25:49.054Z,24.50
2018-07-04T21:28:35.598Z,24.40
2018-07-04T21:31:21.668Z,24.40
2018-07-04T21:34:07.935Z,24.30
2018-07-04T21:36:54.212Z,24.30
2018-07-04T21:39:40.489Z,24.30
2018-07-04T21:42:26.806Z,24.30
2018-07-04T21:45:13.061Z,24.20
2018-07-04T21:47:59.455Z,24.20
2018-07-04T21:50:45.806Z,24.20
2018-07-04T21:53:31.970Z,24.20
2018-07-04T21:56:18.376Z,24.10
2018-07-04T21:59:04.535Z,24.10
2018-07-04T22:01:50.658Z,24.10
2018-07-04T22:04:36.806Z,24.00
2018-07-04T22:07:23.049Z,24.00
2018-07-04T22:10:09.411Z,24.00
2018-07-04T22:12:55.432Z,24.00
2018-07-04T22:15:41.528Z,24.00
2018-07-04T22:18:27.824Z,23.90
2018-07-04T22:21:14.223Z,24.00
2018-07-04T22:24:00.264Z,23.90
2018-07-04T22:26:46.182Z,23.90
2018-07-04T22:29:32.460Z,23.90
2018-07-04T22:32:18.700Z,23.90
2018-07-04T22:35:04.910Z,23.80
2018-07-04T22:37:50.866Z,23.70
2018-07-04T22:40:37.217Z,23.70
2018-07-04T22:43:23.435Z,23.60
2018-07-04T22:46:09.577Z,23.60
2018-07-04T22:48:55.868Z,23.50
2018-07-04T22:51:36.172Z,23.50
2018-07-04T22:54:22.147Z,23.50
2018-07-04T22:57:08.305Z,23.50
2018-07-04T22:59:54.626Z,23.50
2018-07-04T23:02:41.139Z,23.40
2018-07-04T23:05:27.536Z,23.40
2018-07-04T23:08:13.452Z,23.30
2018-07-04T23:10:59.837Z,23.30
2018-07-04T23:13:46.089Z,23.20
2018-07-04T23:16:32.160Z,23.20
2018-07-04T23:19:18.485Z,23.10
2018-07-04T23:22:04.552Z,23.00
2018-07-04T23:24:50.701Z,23.00
2018-07-04T23:27:36.933Z,23.00
2018-07-04T23:30:22.996Z,22.90
2018-07-04T23:33:09.205Z,22.90
2018-07-04T23:35:55.404Z,22.90
2018-07-04T23:38:41.643Z,22.80
2018-07-04T23:41:27.812Z,22.80
2018-07-04T23:44:13.983Z,22.80
2018-07-04T23:47:00.150Z,22.80
2018-07-04T23:49:46.310Z,22.80
2018-07-04T23:52:32.548Z,22.80
2018-07-04T23:55:18.618Z,22.80
2018-07-04T23:58:04.829Z,22.80
